createdAt,value
2019-02-11T09:49:28.940Z,81.13
2019-02-11T09:50:29.462Z,81.05
2019-02-11T09:51:37.292Z,79.93
2019-02-11T09:52:30.525Z,79.78
2019-02-11T09:53:31.754Z,79.94
2019-02-11T09:54:31.467Z,79.63
2019-02-11T09:55:32.897Z,79.77
2019-02-11T09:56:33.382Z,79.81
2019-02-11T09:57:33.135Z,80.13
2019-02-11T09:58:34.171Z,79.31
2019-02-11T09:59:34.699Z,79.22
2019-02-11T10:00:34.224Z,79.92
2019-02-11T10:01:34.831Z,78.92
2019-02-11T10:02:36.284Z,80.00
2019-02-11T10:03:36.800Z,79.53
2019-02-11T10:04:37.317Z,79.52
2019-02-11T10:05:38.276Z,80.29
2019-02-11T10:06:38.908Z,79.85
2019-02-11T10:07:39.480Z,80.63
2019-02-11T10:08:39.909Z,80.68
2019-02-11T10:09:40.399Z,80.57
2019-02-11T10:10:40.637Z,80.55
2019-02-11T10:11:41.220Z,80.47
2019-02-11T10:12:42.024Z,80.65
2019-02-11T10:13:42.092Z,80.50
2019-02-11T10:14:42.760Z,79.59
2019-02-11T10:15:43.362Z,80.41
2019-02-11T10:16:43.857Z,80.18
2019-02-11T10:17:44.395Z,79.79
2019-02-11T10:18:44.983Z,79.74
2019-02-11T10:19:45.753Z,79.17
2019-02-11T10:20:46.618Z,79.92
2019-02-11T10:21:47.455Z,79.85
2019-02-11T10:22:47.073Z,79.83
2019-02-11T10:23:48.782Z,79.78
2019-02-11T10:24:48.864Z,80.62
2019-02-11T10:25:49.449Z,80.44
2019-02-11T10:26:52.400Z,79.98
2019-02-11T10:27:49.220Z,79.58
2019-02-11T10:28:49.739Z,79.64
2019-02-11T10:29:51.487Z,78.66
2019-02-11T10:30:59.415Z,78.43
2019-02-11T10:31:51.805Z,79.49
2019-02-11T10:33:00.164Z,78.52
2019-02-11T10:33:53.472Z,79.03
2019-02-11T10:34:54.721Z,78.92
2019-02-11T10:35:54.351Z,78.79
2019-02-11T10:36:54.453Z,79.47
2019-02-11T10:37:55.117Z,79.55
2019-02-11T10:38:58.312Z,79.57
2019-02-11T10:39:56.157Z,78.58
2019-02-11T10:40:59.171Z,77.95
2019-02-11T10:42:00.414Z,78.81
2019-02-11T10:42:58.675Z,78.03
2019-02-11T10:43:59.328Z,77.55
2019-02-11T10:45:00.879Z,78.28
2019-02-11T10:46:01.770Z,78.05
2019-02-11T10:47:01.880Z,76.45
2019-02-11T10:48:02.478Z,77.59
2019-02-11T10:49:03.159Z,78.52
2019-02-11T10:50:02.737Z,78.90
2019-02-11T10:51:04.598Z,78.59
2019-02-11T10:51:16.193Z,77.18
2019-02-11T10:52:23.181Z,77.23
2019-02-11T10:53:17.971Z,77.70
2019-02-11T10:54:17.723Z,76.83
2019-02-11T10:55:19.604Z,76.65
2019-02-11T10:56:21.824Z,76.09
2019-02-11T10:57:19.101Z,75.95
2019-02-11T10:58:21.821Z,76.39
2019-02-11T10:59:21.381Z,76.17
2019-02-11T11:00:20.446Z,75.16
2019-02-11T11:01:21.075Z,74.34
2019-02-11T11:02:22.835Z,72.19
2019-02-11T11:03:23.422Z,73.17
2019-02-11T11:04:24.176Z,72.91
2019-02-11T11:05:24.376Z,71.88
2019-02-11T11:06:25.109Z,72.56
2019-02-11T11:07:24.805Z,72.34
2019-02-11T11:08:26.328Z,72.71
2019-02-11T11:09:26.926Z,71.88
2019-02-11T11:10:27.299Z,72.74
2019-02-11T11:11:27.703Z,72.84
2019-02-11T11:12:28.613Z,73.38
2019-02-11T11:13:28.528Z,72.63
2019-02-11T11:14:28.986Z,72.53
2019-02-11T11:15:31.007Z,73.11
2019-02-11T11:16:30.003Z,72.58
2019-02-11T11:17:30.064Z,72.94
2019-02-11T11:18:34.389Z,74.10
2019-02-11T11:19:31.216Z,75.13
2019-02-11T11:20:42.744Z,73.71
2019-02-11T11:21:32.289Z,74.33
2019-02-11T11:22:32.943Z,75.61
2019-02-11T11:23:33.732Z,75.86
2019-02-11T11:24:37.201Z,75.58
2019-02-11T11:25:37.233Z,77.18
2019-02-11T11:26:35.113Z,75.86
2019-02-11T11:27:35.206Z,75.05
2019-02-11T11:28:39.006Z,74.70
2019-02-11T11:29:43.225Z,73.54
2019-02-11T11:30:45.587Z,73.79
2019-02-11T11:31:36.607Z,73.87
2019-02-11T11:32:37.031Z,74.36
2019-02-11T11:33:37.853Z,74.91
2019-02-11T11:34:38.888Z,74.44
2019-02-11T11:35:39.139Z,74.29
2019-02-11T11:36:40.143Z,74.56
2019-02-11T11:37:40.590Z,75.46
2019-02-11T11:38:41.493Z,75.34
2019-02-11T11:39:43.483Z,74.69
2019-02-11T11:40:43.809Z,75.42
2019-02-11T11:41:44.098Z,74.63
2019-02-11T11:42:44.853Z,74.82
2019-02-11T11:43:44.267Z,75.11
2019-02-11T11:44:45.763Z,74.79
2019-02-11T11:45:45.496Z,75.25
2019-02-11T11:46:47.306Z,75.27
2019-02-11T11:47:46.385Z,75.79
2019-02-11T11:48:47.044Z,75.11
2019-02-11T11:49:47.477Z,73.28
2019-02-11T11:50:48.777Z,73.30
2019-02-11T11:51:49.367Z,74.34
2019-02-11T11:52:50.096Z,74.83
2019-02-11T11:53:49.342Z,75.00
2019-02-11T11:54:50.282Z,74.29
2019-02-11T11:55:50.507Z,74.10
2019-02-11T11:56:51.008Z,74.03
2019-02-11T11:57:51.573Z,74.71
2019-02-11T11:58:53.446Z,73.59
2019-02-11T11:59:52.482Z,74.14
2019-02-11T12:00:54.259Z,72.58
2019-02-11T12:01:53.090Z,71.72
2019-02-11T12:03:01.716Z,71.94
2019-02-11T12:03:54.262Z,70.65
2019-02-11T12:04:55.095Z,70.60
2019-02-11T12:05:55.234Z,69.87
2019-02-11T12:06:08.705Z,69.62
2019-02-11T12:07:09.911Z,69.72
2019-02-11T12:08:09.913Z,68.94
2019-02-11T12:09:11.385Z,69.02
2019-02-11T12:10:10.374Z,70.10
2019-02-11T12:11:12.355Z,69.90
2019-02-11T12:12:13.183Z,69.22
2019-02-11T12:13:22.695Z,69.90
2019-02-11T12:14:13.122Z,71.41
2019-02-11T12:15:13.328Z,70.48
2019-02-11T12:16:13.563Z,70.21
2019-02-11T12:17:14.113Z,70.38
2019-02-11T12:18:14.772Z,70.43
2019-02-11T12:19:15.301Z,69.88
2019-02-11T12:20:15.297Z,70.36
2019-02-11T12:21:15.738Z,70.31
2019-02-11T12:22:16.483Z,69.03
2019-02-11T12:23:16.823Z,70.37
2019-02-11T12:24:18.129Z,68.75
2019-02-11T12:25:17.998Z,70.27
2019-02-11T12:26:21.492Z,69.28
2019-02-11T12:27:19.583Z,69.79
2019-02-11T12:28:19.632Z,70.11
2019-02-11T12:29:20.209Z,68.90
2019-02-11T12:30:29.889Z,69.99
2019-02-11T12:31:21.899Z,70.15
2019-02-11T12:32:21.614Z,69.00
2019-02-11T12:33:23.496Z,69.31
2019-02-11T12:34:23.441Z,69.52
2019-02-11T12:36:25.116Z,68.15
2019-02-11T12:37:25.235Z,69.03
